createdAt,value
2019-01-08T00:00:57.437Z,34.07
2019-01-08T00:03:01.337Z,26.07
2019-01-08T00:05:05.485Z,24.40
2019-01-08T00:07:09.384Z,25.27
2019-01-08T00:09:13.226Z,26.30
2019-01-08T00:11:17.181Z,33.60
2019-01-08T00:13:21.036Z,15.43
2019-01-08T00:15:24.894Z,26.03
2019-01-08T00:17:28.838Z,29.47
2019-01-08T00:19:32.671Z,22.47
2019-01-08T00:21:36.604Z,24.67
2019-01-08T00:23:40.507Z,28.10
2019-01-08T00:25:44.346Z,25.27
2019-01-08T00:27:48.290Z,23.17
2019-01-08T00:29:52.208Z,29.93
2019-01-08T00:31:56.070Z,18.60
2019-01-08T00:33:59.963Z,19.40
2019-01-08T00:36:03.893Z,28.47
2019-01-08T00:38:07.804Z,19.67
2019-01-08T00:40:11.641Z,19.43
2019-01-08T00:42:15.572Z,24.30
2019-01-08T00:44:19.433Z,21.13
2019-01-08T00:46:23.377Z,23.57
2019-01-08T00:48:27.241Z,16.50
2019-01-08T00:50:31.088Z,31.13
2019-01-08T00:52:35.031Z,33.43
2019-01-08T00:54:38.878Z,30.17
2019-01-08T00:56:42.770Z,33.47
2019-01-08T00:58:51.538Z,30.00
2019-01-08T01:00:52.138Z,30.73
2019-01-08T01:02:56.133Z,23.00
2019-01-08T01:04:59.996Z,23.47
2019-01-08T01:07:03.870Z,28.97
2019-01-08T01:09:08.396Z,24.33
2019-01-08T01:11:12.260Z,24.90
2019-01-08T01:13:16.127Z,24.70
2019-01-08T01:15:20.033Z,23.77
2019-01-08T01:17:23.894Z,20.90
2019-01-08T01:19:27.848Z,23.97
2019-01-08T01:21:31.691Z,24.20
2019-01-08T01:23:35.537Z,23.30
2019-01-08T01:25:39.480Z,23.33
2019-01-08T01:27:43.417Z,21.60
2019-01-08T01:29:47.317Z,25.10
2019-01-08T01:31:51.186Z,30.80
2019-01-08T01:33:55.066Z,28.53
2019-01-08T01:35:59.002Z,29.20
2019-01-08T01:38:02.862Z,27.77
2019-01-08T01:40:07.038Z,23.87
2019-01-08T01:42:10.954Z,20.00
2019-01-08T01:44:14.814Z,27.23
2019-01-08T01:46:18.716Z,31.00
2019-01-08T01:48:22.716Z,21.77
2019-01-08T01:50:26.633Z,26.83
2019-01-08T01:52:30.508Z,27.47
2019-01-08T01:54:34.408Z,28.83
2019-01-08T01:56:38.306Z,26.37
2019-01-08T01:58:42.274Z,29.23
2019-01-08T02:00:46.126Z,17.30
2019-01-08T02:02:50.034Z,19.13
2019-01-08T02:04:54.628Z,17.23
2019-01-08T02:06:58.510Z,15.47
2019-01-08T02:09:02.422Z,23.10
2019-01-08T02:11:06.290Z,20.50
2019-01-08T02:13:10.310Z,21.30
2019-01-08T02:15:14.170Z,22.20
2019-01-08T02:17:18.021Z,27.20
2019-01-08T02:19:21.904Z,19.63
2019-01-08T02:21:25.839Z,20.07
2019-01-08T02:23:29.720Z,23.27
2019-01-08T02:25:33.576Z,27.20
2019-01-08T02:27:37.498Z,24.30
2019-01-08T02:29:41.377Z,17.17
2019-01-08T02:31:45.224Z,34.30
2019-01-08T02:33:49.166Z,17.03
2019-01-08T02:35:53.069Z,27.50
2019-01-08T02:37:56.957Z,31.10
2019-01-08T02:40:00.864Z,23.87
2019-01-08T02:42:04.691Z,13.57
2019-01-08T02:44:08.775Z,27.40
2019-01-08T02:46:12.752Z,22.63
2019-01-08T02:48:16.702Z,28.27
2019-01-08T02:50:20.595Z,23.60
2019-01-08T02:52:24.502Z,21.97
2019-01-08T02:54:28.417Z,19.07
2019-01-08T02:56:32.355Z,25.13
2019-01-08T02:58:36.201Z,25.07
2019-01-08T03:00:40.125Z,14.57
2019-01-08T03:02:43.978Z,28.97
2019-01-08T03:04:47.915Z,18.63
2019-01-08T03:06:51.773Z,22.17
2019-01-08T03:08:55.636Z,22.50
2019-01-08T03:10:59.595Z,22.37
2019-01-08T03:13:03.449Z,20.93
2019-01-08T03:15:07.314Z,15.47
2019-01-08T03:17:11.204Z,27.03
2019-01-08T03:19:15.071Z,27.87
2019-01-08T03:21:18.924Z,20.53
2019-01-08T03:23:22.946Z,21.70
2019-01-08T03:25:26.852Z,21.83
2019-01-08T03:27:30.702Z,25.03
2019-01-08T03:29:34.645Z,25.60
2019-01-08T03:31:38.488Z,20.13
2019-01-08T03:33:42.365Z,20.23
2019-01-08T03:35:46.368Z,18.03
2019-01-08T03:37:50.250Z,18.27
2019-01-08T03:39:54.097Z,20.63
2019-01-08T03:41:58.046Z,18.93
2019-01-08T03:44:01.925Z,25.10
2019-01-08T03:46:05.839Z,21.20
2019-01-08T03:48:09.680Z,24.33
2019-01-08T03:50:13.558Z,14.77
2019-01-08T03:52:17.449Z,19.70
2019-01-08T03:54:21.302Z,19.33
2019-01-08T03:56:25.235Z,23.77
2019-01-08T03:58:29.143Z,21.90
2019-01-08T04:00:33.046Z,29.13
2019-01-08T04:02:36.938Z,24.87
2019-01-08T04:04:40.870Z,19.70
2019-01-08T04:06:44.737Z,29.10
2019-01-08T04:08:48.666Z,25.70
2019-01-08T04:10:52.536Z,24.83
2019-01-08T04:12:56.465Z,32.10
2019-01-08T04:15:00.354Z,22.83
2019-01-08T04:17:04.269Z,20.77
2019-01-08T04:19:08.215Z,22.87
2019-01-08T04:21:12.167Z,16.60
2019-01-08T04:23:16.055Z,20.27
2019-01-08T04:25:19.931Z,26.93
2019-01-08T04:27:23.821Z,23.93
2019-01-08T04:29:27.702Z,24.23
2019-01-08T04:31:31.625Z,23.03
2019-01-08T04:33:35.496Z,28.87
2019-01-08T04:35:39.349Z,30.90
2019-01-08T04:37:43.283Z,21.73
2019-01-08T04:39:47.139Z,22.83
2019-01-08T04:41:50.989Z,30.77
2019-01-08T04:43:54.912Z,28.33
2019-01-08T04:45:58.802Z,27.30
2019-01-08T04:48:02.690Z,29.83
2019-01-08T04:50:07.516Z,18.90
2019-01-08T04:52:11.383Z,21.43
2019-01-08T04:54:15.270Z,23.53
2019-01-08T04:56:19.133Z,24.73
2019-01-08T04:58:23.000Z,21.47
2019-01-08T05:00:26.883Z,28.40
2019-01-08T05:02:30.747Z,28.63
2019-01-08T05:04:34.645Z,23.27
2019-01-08T05:06:38.543Z,35.00
2019-01-08T05:08:42.421Z,42.63
2019-01-08T05:10:46.334Z,27.27
2019-01-08T05:12:50.205Z,32.20
2019-01-08T05:14:54.106Z,21.67
2019-01-08T05:16:57.977Z,30.67
2019-01-08T05:19:01.836Z,26.40
2019-01-08T05:21:05.728Z,28.73
2019-01-08T05:23:09.569Z,24.47
2019-01-08T05:25:13.433Z,32.43
2019-01-08T05:27:17.400Z,36.93
2019-01-08T05:29:21.302Z,34.20
2019-01-08T05:31:25.264Z,38.33
2019-01-08T05:33:29.122Z,31.53
2019-01-08T05:35:33.054Z,37.13
2019-01-08T05:37:36.905Z,29.20
2019-01-08T05:39:40.981Z,33.53
2019-01-08T05:41:45.817Z,30.50
2019-01-08T05:43:49.797Z,32.40
2019-01-08T05:45:53.708Z,28.47
2019-01-08T05:47:57.597Z,29.33
2019-01-08T05:50:01.502Z,37.23
2019-01-08T05:52:05.359Z,34.07
2019-01-08T05:54:09.270Z,44.77
2019-01-08T05:56:13.165Z,53.43
2019-01-08T05:58:17.025Z,34.77
2019-01-08T06:00:20.917Z,31.73
2019-01-08T06:02:24.823Z,41.20
2019-01-08T06:04:28.673Z,31.63
2019-01-08T06:06:32.611Z,30.30
2019-01-08T06:08:36.470Z,33.37
2019-01-08T06:10:40.349Z,36.63
2019-01-08T06:12:44.255Z,31.63
2019-01-08T06:14:48.148Z,36.27
2019-01-08T06:16:52.010Z,25.93
2019-01-08T06:18:55.874Z,35.20
2019-01-08T06:20:59.914Z,27.27
2019-01-08T06:23:03.839Z,31.80
2019-01-08T06:25:07.679Z,30.37
2019-01-08T06:27:11.607Z,41.70
2019-01-08T06:29:15.514Z,30.63
2019-01-08T06:31:19.391Z,26.03
2019-01-08T06:33:23.301Z,26.63
2019-01-08T06:35:27.179Z,36.80
2019-01-08T06:37:31.153Z,33.70
2019-01-08T06:39:35.077Z,33.50
2019-01-08T06:41:38.965Z,36.67
2019-01-08T06:43:42.818Z,34.60
2019-01-08T06:45:46.731Z,25.33
2019-01-08T06:47:50.618Z,36.83
2019-01-08T06:49:54.473Z,40.10
2019-01-08T06:51:58.349Z,41.73
2019-01-08T06:54:02.294Z,41.23
2019-01-08T06:56:06.149Z,33.90
2019-01-08T06:58:10.017Z,34.53
2019-01-08T07:00:13.911Z,32.27
2019-01-08T07:02:17.814Z,33.17
2019-01-08T07:04:21.663Z,25.17
2019-01-08T07:06:25.563Z,32.60
2019-01-08T07:08:29.664Z,32.83
2019-01-08T07:10:33.736Z,28.67
2019-01-08T07:12:37.578Z,27.37
2019-01-08T07:14:41.507Z,24.83
2019-01-08T07:16:45.397Z,37.30
2019-01-08T07:18:49.233Z,26.60
2019-01-08T07:20:53.116Z,28.07
2019-01-08T07:22:56.958Z,33.87
2019-01-08T07:25:00.871Z,26.63
2019-01-08T07:27:04.735Z,23.50
2019-01-08T07:29:08.601Z,25.47
2019-01-08T07:31:12.511Z,38.13
2019-01-08T07:33:16.360Z,21.70
2019-01-08T07:35:20.217Z,25.67
2019-01-08T07:37:24.128Z,27.70
2019-01-08T07:39:27.982Z,29.60
2019-01-08T07:41:31.856Z,24.67
2019-01-08T07:43:35.760Z,25.20
2019-01-08T07:45:39.737Z,22.23
2019-01-08T07:47:43.860Z,30.80
2019-01-08T07:49:47.718Z,30.27
2019-01-08T07:51:51.754Z,26.53
2019-01-08T07:53:55.640Z,23.90
2019-01-08T07:55:59.481Z,22.20
2019-01-08T07:58:03.442Z,25.27
2019-01-08T08:00:08.597Z,22.97
2019-01-08T08:02:12.466Z,26.93
2019-01-08T08:04:16.372Z,22.07
2019-01-08T08:06:20.232Z,27.50
2019-01-08T08:08:24.123Z,23.80
2019-01-08T08:10:28.141Z,28.83
2019-01-08T08:12:31.987Z,40.97
2019-01-08T08:14:35.844Z,33.80
2019-01-08T08:16:39.886Z,36.70
2019-01-08T08:18:43.784Z,33.43
2019-01-08T08:20:47.710Z,33.30
2019-01-08T08:22:51.586Z,35.73
2019-01-08T08:24:55.992Z,36.23
2019-01-08T08:27:00.046Z,34.63
2019-01-08T08:29:03.914Z,30.60
2019-01-08T08:31:07.783Z,31.43
2019-01-08T08:33:11.678Z,36.30
2019-01-08T08:35:15.533Z,30.77
2019-01-08T08:37:19.751Z,27.70
2019-01-08T08:39:23.645Z,29.67
2019-01-08T08:41:27.508Z,36.57
2019-01-08T08:43:31.402Z,28.93
2019-01-08T08:45:35.292Z,42.17
2019-01-08T08:47:39.131Z,27.60
2019-01-08T08:49:43.018Z,31.07
2019-01-08T08:51:46.877Z,26.70
2019-01-08T08:53:52.723Z,30.33
2019-01-08T08:55:56.318Z,33.13
2019-01-08T08:58:00.178Z,30.93
2019-01-08T09:00:04.403Z,32.37
2019-01-08T09:02:08.304Z,35.07
2019-01-08T09:04:12.168Z,36.67
2019-01-08T09:06:16.047Z,40.83
2019-01-08T09:08:19.934Z,35.23
2019-01-08T09:10:23.825Z,36.23
2019-01-08T09:12:27.751Z,38.97
2019-01-08T09:14:31.607Z,43.43
2019-01-08T09:16:35.509Z,39.23
2019-01-08T09:18:39.374Z,39.43
2019-01-08T09:20:43.281Z,43.80
2019-01-08T09:22:47.149Z,39.17
2019-01-08T09:24:51.047Z,38.50
2019-01-08T09:26:54.955Z,31.17
2019-01-08T09:28:58.846Z,41.07
2019-01-08T09:31:02.720Z,52.17
2019-01-08T09:33:06.571Z,37.77
2019-01-08T09:35:10.466Z,44.70
2019-01-08T09:37:14.333Z,41.50
2019-01-08T09:39:18.225Z,42.07
2019-01-08T09:41:22.103Z,41.13
2019-01-08T09:43:26.025Z,42.50
2019-01-08T09:45:30.019Z,36.67
2019-01-08T09:47:33.869Z,46.27
2019-01-08T09:49:37.751Z,39.20
2019-01-08T09:51:41.654Z,45.57
2019-01-08T09:53:45.544Z,35.97
2019-01-08T09:55:49.620Z,42.17
2019-01-08T09:57:53.530Z,34.87
2019-01-08T09:59:57.377Z,41.23
2019-01-08T10:02:01.287Z,36.83
2019-01-08T10:04:05.310Z,32.60
2019-01-08T10:06:09.175Z,36.33
2019-01-08T10:08:13.046Z,32.90
2019-01-08T10:10:16.951Z,37.53
2019-01-08T10:12:20.841Z,31.47
2019-01-08T10:14:24.703Z,46.37
2019-01-08T10:16:28.609Z,27.47
2019-01-08T10:18:32.518Z,35.80
2019-01-08T10:20:36.485Z,48.23
2019-01-08T10:22:40.400Z,46.87
2019-01-08T10:24:44.310Z,34.70
2019-01-08T10:26:48.177Z,29.47
2019-01-08T10:28:52.057Z,41.47
2019-01-08T10:30:55.983Z,42.53
2019-01-08T10:32:59.891Z,33.73
2019-01-08T10:35:03.985Z,35.83
2019-01-08T10:37:07.839Z,41.90
2019-01-08T10:39:11.711Z,39.77
2019-01-08T10:41:15.627Z,38.60
2019-01-08T10:43:19.505Z,47.17
2019-01-08T10:45:23.447Z,39.70
2019-01-08T10:47:27.378Z,40.43
2019-01-08T10:49:31.218Z,36.07
2019-01-08T10:51:35.099Z,35.97
2019-01-08T10:53:38.997Z,38.70
2019-01-08T10:55:42.925Z,38.13
2019-01-08T10:57:46.861Z,37.97
2019-01-08T10:59:50.749Z,31.93
2019-01-08T11:01:54.619Z,33.43
2019-01-08T11:03:58.561Z,27.30
2019-01-08T11:06:02.421Z,36.13
2019-01-08T11:08:06.366Z,32.63
2019-01-08T11:10:10.214Z,36.40
2019-01-08T11:12:14.070Z,35.33
2019-01-08T11:14:17.997Z,33.37
2019-01-08T11:16:21.850Z,43.40
2019-01-08T11:18:25.892Z,38.30
2019-01-08T11:20:29.733Z,37.63
2019-01-08T11:22:33.599Z,32.43
2019-01-08T11:24:37.531Z,36.33
2019-01-08T11:26:41.366Z,36.23
2019-01-08T11:28:45.260Z,32.23
2019-01-08T11:30:49.130Z,29.27
2019-01-08T11:32:54.753Z,32.40
2019-01-08T11:34:58.559Z,29.63
2019-01-08T11:37:02.427Z,30.50
2019-01-08T11:39:06.848Z,35.10
2019-01-08T11:41:10.747Z,44.70
2019-01-08T11:43:14.594Z,38.03
2019-01-08T11:45:18.470Z,35.23
2019-01-08T11:47:22.463Z,26.23
2019-01-08T11:49:26.323Z,34.43
2019-01-08T11:51:30.207Z,30.70
2019-01-08T11:53:36.704Z,31.87
2019-01-08T11:55:40.671Z,33.43
2019-01-08T11:57:44.548Z,32.37
2019-01-08T11:59:48.472Z,38.70
2019-01-08T12:01:57.241Z,23.87
2019-01-08T12:03:57.862Z,31.53
2019-01-08T12:06:01.763Z,25.77
2019-01-08T12:08:05.638Z,21.07
2019-01-08T12:10:09.506Z,20.27
2019-01-08T12:12:13.404Z,25.00
2019-01-08T12:14:17.267Z,22.57
2019-01-08T12:16:21.177Z,33.23
2019-01-08T12:18:25.067Z,29.97
2019-01-08T12:20:28.930Z,29.40
2019-01-08T12:22:40.621Z,37.03
2019-01-08T12:24:38.306Z,23.20
2019-01-08T12:26:42.229Z,26.37
2019-01-08T12:28:46.125Z,32.33
2019-01-08T12:30:50.004Z,32.67
2019-01-08T12:32:53.930Z,28.93
2019-01-08T12:34:57.783Z,40.27
2019-01-08T12:37:01.685Z,34.73
2019-01-08T12:39:06.779Z,27.70
2019-01-08T12:41:10.686Z,36.93
2019-01-08T12:43:14.566Z,27.20
2019-01-08T12:45:18.419Z,26.50
2019-01-08T12:47:22.357Z,24.53
2019-01-08T12:49:26.231Z,20.40
2019-01-08T12:51:30.107Z,18.57
2019-01-08T12:53:34.020Z,15.73
2019-01-08T12:55:37.846Z,30.73
2019-01-08T12:57:41.697Z,22.87
2019-01-08T12:59:45.615Z,20.40
2019-01-08T13:01:49.482Z,26.33
2019-01-08T13:03:53.368Z,31.27
2019-01-08T13:05:57.269Z,28.90
2019-01-08T13:08:01.130Z,27.33
2019-01-08T13:10:07.887Z,29.93
2019-01-08T13:12:11.766Z,32.50
2019-01-08T13:14:15.608Z,26.03
2019-01-08T13:16:19.544Z,19.67
2019-01-08T13:18:23.390Z,29.20
2019-01-08T13:20:27.304Z,28.50
2019-01-08T13:22:31.188Z,32.60
2019-01-08T13:24:35.046Z,37.83
2019-01-08T13:26:38.894Z,35.50
2019-01-08T13:28:42.774Z,35.80
2019-01-08T13:30:46.635Z,32.50
2019-01-08T13:32:50.514Z,40.30
2019-01-08T13:34:54.435Z,33.30
2019-01-08T13:36:58.323Z,41.57
2019-01-08T13:39:02.212Z,34.50
2019-01-08T13:41:06.107Z,34.77
2019-01-08T13:43:10.007Z,22.57
2019-01-08T13:45:13.940Z,23.63
2019-01-08T13:47:17.792Z,26.37
2019-01-08T13:49:21.702Z,25.57
2019-01-08T13:51:25.567Z,24.47
2019-01-08T13:53:29.450Z,39.20
2019-01-08T13:55:33.329Z,36.90
2019-01-08T13:57:37.185Z,31.47
2019-01-08T13:59:41.081Z,37.80
2019-01-08T14:01:44.953Z,45.47
2019-01-08T14:03:48.859Z,32.87
2019-01-08T14:05:52.722Z,36.47
2019-01-08T14:07:56.601Z,42.07
2019-01-08T14:10:00.578Z,37.47
2019-01-08T14:12:04.522Z,25.97
2019-01-08T14:14:08.378Z,29.50
2019-01-08T14:16:12.249Z,36.87
2019-01-08T14:18:17.391Z,33.27
2019-01-08T14:20:21.369Z,36.50
2019-01-08T14:22:25.260Z,28.90
2019-01-08T14:24:29.116Z,35.90
2019-01-08T14:26:33.018Z,33.10
2019-01-08T14:28:36.949Z,29.87
2019-01-08T14:30:40.903Z,30.03
2019-01-08T14:32:44.772Z,24.87
2019-01-08T14:34:48.639Z,28.17
2019-01-08T14:36:52.650Z,23.63
2019-01-08T14:38:56.542Z,25.57
2019-01-08T14:41:00.396Z,29.13
2019-01-08T14:43:04.315Z,25.07
2019-01-08T14:45:08.179Z,34.33
2019-01-08T14:47:12.201Z,25.20
2019-01-08T14:49:16.047Z,35.00
2019-01-08T14:51:19.905Z,37.57
2019-01-08T14:53:23.821Z,29.83
2019-01-08T14:55:27.733Z,29.37
2019-01-08T14:57:31.602Z,27.30
2019-01-08T14:59:35.534Z,32.57
2019-01-08T15:01:39.386Z,30.90
2019-01-08T15:03:43.398Z,28.27
2019-01-08T15:05:47.270Z,28.83
2019-01-08T15:07:51.135Z,22.80
2019-01-08T15:09:55.014Z,27.90
2019-01-08T15:11:58.936Z,22.20
2019-01-08T15:14:02.889Z,17.37
2019-01-08T15:16:06.789Z,17.67
2019-01-08T15:18:10.632Z,21.90
2019-01-08T15:20:14.562Z,26.50
2019-01-08T15:22:18.406Z,19.30
2019-01-08T15:24:22.305Z,24.23
2019-01-08T15:26:26.220Z,22.80
2019-01-08T15:28:30.075Z,31.60
2019-01-08T15:30:34.080Z,27.03
2019-01-08T15:32:37.927Z,28.90
2019-01-08T15:34:41.874Z,20.50
2019-01-08T15:36:46.132Z,22.23
2019-01-08T15:38:50.247Z,30.83
2019-01-08T15:40:54.148Z,29.60
2019-01-08T15:42:57.996Z,21.10
2019-01-08T15:45:01.878Z,26.57
2019-01-08T15:47:05.798Z,19.30
2019-01-08T15:49:09.651Z,24.40
2019-01-08T15:51:13.514Z,17.90
2019-01-08T15:53:17.766Z,18.43
2019-01-08T15:55:21.609Z,11.00
2019-01-08T15:59:35.806Z,21.40
2019-01-08T16:01:39.724Z,19.03
2019-01-08T16:03:43.594Z,14.20
2019-01-08T16:05:47.502Z,17.53
2019-01-08T16:07:51.395Z,28.00
2019-01-08T16:09:55.442Z,17.23
2019-01-08T16:11:59.303Z,24.27
2019-01-08T16:14:03.150Z,23.83
2019-01-08T16:16:07.082Z,23.53
2019-01-08T16:18:10.949Z,24.67
2019-01-08T16:20:14.989Z,30.90
2019-01-08T16:22:18.899Z,29.30
2019-01-08T16:24:22.782Z,28.33
2019-01-08T16:26:26.686Z,36.00
2019-01-08T16:28:30.630Z,26.53
2019-01-08T16:30:34.496Z,35.80
2019-01-08T16:32:38.385Z,36.43
2019-01-08T16:34:42.290Z,26.93
2019-01-08T16:36:48.278Z,25.00
2019-01-08T16:38:51.695Z,22.13
2019-01-08T16:40:55.573Z,22.40
2019-01-08T16:42:59.495Z,20.00
2019-01-08T16:45:03.465Z,36.70
2019-01-08T16:47:07.822Z,36.43
2019-01-08T16:49:11.770Z,26.03
2019-01-08T16:51:15.630Z,21.30
2019-01-08T16:53:19.513Z,35.90
2019-01-08T16:55:23.409Z,28.30
2019-01-08T16:57:27.270Z,40.60
2019-01-08T16:59:31.183Z,31.23
2019-01-08T17:01:35.050Z,27.00
2019-01-08T17:03:38.969Z,33.17
2019-01-08T17:05:42.857Z,31.03
2019-01-08T17:07:46.721Z,35.00
2019-01-08T17:09:50.630Z,40.20
2019-01-08T17:11:54.498Z,36.30
2019-01-08T17:13:58.356Z,52.17
2019-01-08T17:16:02.287Z,39.60
2019-01-08T17:18:06.150Z,38.83
2019-01-08T17:20:10.029Z,38.47
2019-01-08T17:22:13.873Z,29.43
2019-01-08T17:24:17.735Z,32.60
2019-01-08T17:26:21.619Z,32.30
2019-01-08T17:28:25.581Z,23.40
2019-01-08T17:30:29.537Z,25.07
2019-01-08T17:32:33.572Z,28.20
2019-01-08T17:34:37.450Z,25.93
2019-01-08T17:36:41.302Z,29.47
2019-01-08T17:38:45.198Z,22.73
2019-01-08T17:40:49.061Z,30.97
2019-01-08T17:42:53.077Z,27.73
2019-01-08T17:44:56.943Z,35.63
2019-01-08T17:47:00.805Z,48.53
2019-01-08T17:49:04.749Z,37.93
2019-01-08T17:51:08.590Z,47.70
2019-01-08T17:53:12.449Z,47.87
2019-01-08T17:55:16.406Z,42.50
2019-01-08T17:57:20.230Z,35.70
2019-01-08T17:59:24.089Z,36.23
2019-01-08T18:01:28.044Z,38.50
2019-01-08T18:03:31.881Z,36.47
2019-01-08T18:05:35.809Z,38.07
2019-01-08T18:07:39.667Z,44.00
2019-01-08T18:09:43.517Z,40.33
2019-01-08T18:11:47.460Z,43.47
2019-01-08T18:13:51.310Z,37.97
2019-01-08T18:15:55.150Z,42.37
2019-01-08T18:17:59.054Z,32.20
2019-01-08T18:20:03.155Z,37.00
2019-01-08T18:22:07.086Z,36.87
2019-01-08T18:24:10.954Z,30.57
2019-01-08T18:26:14.862Z,22.10
2019-01-08T18:28:18.841Z,26.23
2019-01-08T18:30:22.828Z,23.90
2019-01-08T18:32:26.775Z,18.33
2019-01-08T18:34:30.734Z,17.67
2019-01-08T18:36:34.691Z,20.47
2019-01-08T18:38:38.572Z,19.07
2019-01-08T18:40:42.409Z,15.13
2019-01-08T18:42:46.442Z,15.70
2019-01-08T18:44:50.293Z,18.07
2019-01-08T18:46:54.161Z,14.50
2019-01-08T18:48:58.072Z,13.57
2019-01-08T18:51:01.934Z,11.60
2019-01-08T18:53:05.819Z,21.33
2019-01-08T18:55:09.736Z,19.73
2019-01-08T18:57:13.664Z,16.37
2019-01-08T18:59:17.653Z,16.60
2019-01-08T19:01:21.526Z,20.10
2019-01-08T19:03:25.378Z,20.07
2019-01-08T19:05:30.194Z,16.37
2019-01-08T19:07:34.070Z,16.73
2019-01-08T19:09:38.268Z,17.17
2019-01-08T19:11:42.170Z,16.00
2019-01-08T19:13:46.062Z,20.60
2019-01-08T19:15:49.989Z,15.80
2019-01-08T19:17:53.828Z,16.30
2019-01-08T19:19:57.692Z,16.40
2019-01-08T19:22:01.575Z,17.33
2019-01-08T19:24:05.487Z,24.97
2019-01-08T19:26:09.391Z,22.23
2019-01-08T19:28:13.284Z,15.13
2019-01-08T19:30:17.195Z,20.97
2019-01-08T19:32:22.312Z,17.90
2019-01-08T19:34:26.328Z,21.80
2019-01-08T19:36:30.375Z,17.10
2019-01-08T19:38:34.371Z,21.33
2019-01-08T19:40:38.230Z,16.83
2019-01-08T19:42:42.096Z,15.60
2019-01-08T19:44:45.986Z,16.67
2019-01-08T19:46:49.894Z,20.60
2019-01-08T19:48:53.759Z,24.77
2019-01-08T19:50:57.755Z,10.27
2019-01-08T19:53:01.756Z,11.57
2019-01-08T19:55:06.999Z,14.17
2019-01-08T19:57:10.887Z,5.63
2019-01-08T19:59:14.767Z,13.03
2019-01-08T20:01:18.667Z,15.23
2019-01-08T20:03:22.580Z,14.23
2019-01-08T20:05:26.461Z,9.53
2019-01-08T20:07:30.363Z,17.83
2019-01-08T20:09:34.358Z,7.17
2019-01-08T20:11:38.378Z,9.33
2019-01-08T20:13:42.305Z,11.33
2019-01-08T20:15:46.177Z,9.20
2019-01-08T20:17:50.194Z,13.37
2019-01-08T20:19:54.244Z,8.47
2019-01-08T20:21:58.365Z,12.67
2019-01-08T20:24:06.417Z,7.23
2019-01-08T20:26:07.817Z,10.13
2019-01-08T20:28:11.744Z,10.53
2019-01-08T20:30:15.659Z,7.97
2019-01-08T20:32:19.549Z,15.17
2019-01-08T20:34:26.862Z,11.47
2019-01-08T20:36:28.899Z,12.33
2019-01-08T20:38:32.863Z,10.70
2019-01-08T20:40:36.703Z,13.20
2019-01-08T20:42:40.561Z,10.70
2019-01-08T20:44:44.470Z,10.67
2019-01-08T20:46:48.390Z,14.13
2019-01-08T20:48:52.342Z,9.23
2019-01-08T20:50:56.246Z,12.17
2019-01-08T20:53:00.131Z,13.73
2019-01-08T20:55:04.134Z,9.23
2019-01-08T20:57:09.259Z,4.77
2019-01-08T20:59:13.402Z,4.90
2019-01-08T21:01:17.332Z,3.67
2019-01-08T21:03:21.174Z,6.43
2019-01-08T21:05:25.077Z,9.93
2019-01-08T21:07:29.083Z,3.97
2019-01-08T21:09:32.933Z,8.73
2019-01-08T21:11:36.973Z,5.20
2019-01-08T21:13:40.856Z,2.70
2019-01-08T21:15:44.753Z,3.67
2019-01-08T21:17:48.666Z,5.00
2019-01-08T21:19:52.548Z,6.73
2019-01-08T21:21:56.395Z,4.90
2019-01-08T21:24:00.334Z,3.87
2019-01-08T21:26:04.294Z,8.47
2019-01-08T21:28:08.314Z,9.87
2019-01-08T21:30:12.157Z,8.97
2019-01-08T21:32:16.018Z,8.80
2019-01-08T21:34:20.037Z,9.57
2019-01-08T21:36:23.890Z,6.30
2019-01-08T21:38:27.780Z,3.90
2019-01-08T21:40:32.951Z,3.47
2019-01-08T21:42:36.899Z,4.63
2019-01-08T21:44:41.103Z,12.83
2019-01-08T21:46:45.181Z,6.60
2019-01-08T21:48:49.038Z,6.43
2019-01-08T21:50:54.618Z,14.63
2019-01-08T21:52:59.988Z,7.77
2019-01-08T21:55:03.911Z,13.47
2019-01-08T21:57:11.596Z,10.20
2019-01-08T21:59:15.715Z,8.57
2019-01-08T22:01:19.630Z,11.83
2019-01-08T22:03:25.316Z,5.83
2019-01-08T22:05:29.244Z,7.23
2019-01-08T22:07:33.266Z,6.83
2019-01-08T22:09:37.114Z,8.90
2019-01-08T22:11:40.991Z,7.17
2019-01-08T22:13:44.919Z,7.77
2019-01-08T22:15:48.785Z,11.77
2019-01-08T22:17:52.669Z,8.13
2019-01-08T22:19:56.584Z,8.33
2019-01-08T22:22:00.439Z,9.47
2019-01-08T22:24:04.304Z,10.07
2019-01-08T22:26:08.220Z,12.80
2019-01-08T22:28:12.097Z,6.50
2019-01-08T22:30:16.003Z,14.40
2019-01-08T22:32:19.903Z,11.60
2019-01-08T22:34:23.794Z,10.53
2019-01-08T22:36:27.659Z,17.13
2019-01-08T22:38:31.545Z,11.47
2019-01-08T22:40:35.390Z,12.03
2019-01-08T22:42:39.333Z,14.83
2019-01-08T22:44:43.218Z,11.43
2019-01-08T22:46:47.180Z,18.77
2019-01-08T22:48:51.057Z,14.83
2019-01-08T22:50:54.950Z,12.47
2019-01-08T22:52:58.810Z,13.27
2019-01-08T22:55:02.714Z,24.93
2019-01-08T22:57:07.492Z,14.13
2019-01-08T22:59:11.388Z,18.40
2019-01-08T23:01:18.591Z,18.00
2019-01-08T23:03:23.321Z,15.00
2019-01-08T23:05:27.204Z,19.87
2019-01-08T23:07:31.201Z,21.03
2019-01-08T23:09:35.091Z,20.30
2019-01-08T23:11:38.932Z,24.20
2019-01-08T23:13:42.835Z,27.20
2019-01-08T23:15:46.693Z,31.17
2019-01-08T23:17:50.803Z,15.63
2019-01-08T23:19:54.686Z,24.40
2019-01-08T23:21:58.562Z,27.27
2019-01-08T23:24:02.468Z,19.90
2019-01-08T23:26:06.341Z,25.53
2019-01-08T23:28:10.209Z,17.43
2019-01-08T23:30:14.141Z,24.63
2019-01-08T23:32:18.008Z,8.70
2019-01-08T23:34:21.943Z,10.23
2019-01-08T23:36:25.814Z,11.67
2019-01-08T23:38:29.704Z,5.07
2019-01-08T23:40:33.703Z,6.40
2019-01-08T23:42:37.602Z,8.10
2019-01-08T23:44:41.452Z,8.30
2019-01-08T23:46:45.349Z,8.03
2019-01-08T23:48:49.197Z,7.77
2019-01-08T23:50:53.199Z,6.63
2019-01-08T23:53:08.015Z,10.43
2019-01-08T23:55:11.882Z,8.40
2019-01-08T23:57:17.059Z,10.13
2019-01-08T23:59:20.958Z,7.13
